sensor_id;sensor_type;location;lat;lon;timestamp;temperature;humidity
5007;DHT22;2522;50.972;11.046;2022-09-03T05:01:07;12.70;99.90
5007;DHT22;2522;50.972;11.046;2022-09-03T05:03:34;12.70;99.90
5007;DHT22;2522;50.972;11.046;2022-09-03T05:06:02;12.70;99.90
5007;DHT22;2522;50.972;11.046;2022-09-03T05:08:30;12.80;99.90
5007;DHT22;2522;50.972;11.046;2022-09-03T05:10:57;12.80;99.90
5007;DHT22;2522;50.972;11.046;2022-09-03T05:13:25;12.80;99.90
5007;DHT22;2522;50.972;11.046;2022-09-03T05:15:52;12.80;99.90
5007;DHT22;2522;50.972;11.046;2022-09-03T05:18:25;12.90;99.90
5007;DHT22;2522;50.972;11.046;2022-09-03T05:20:56;12.90;99.90
5007;DHT22;2522;50.972;11.046;2022-09-03T05:23:23;13.00;99.90
5007;DHT22;2522;50.972;11.046;2022-09-03T05:25:53;13.00;99.90
5007;DHT22;2522;50.972;11.046;2022-09-03T05:28:20;13.10;99.90
5007;DHT22;2522;50.972;11.046;2022-09-03T05:30:52;13.20;99.90
5007;DHT22;2522;50.972;11.046;2022-09-03T05:33:24;13.20;99.90
5007;DHT22;2522;50.972;11.046;2022-09-03T05:35:52;13.30;99.90
5007;DHT22;2522;50.972;11.046;2022-09-03T05:38:19;13.40;99.90
5007;DHT22;2522;50.972;11.046;2022-09-03T05:40:45;13.50;99.90
5007;DHT22;2522;50.972;11.046;2022-09-03T05:43:12;13.50;99.90
5007;DHT22;2522;50.972;11.046;2022-09-03T05:45:39;13.50;99.90
5007;DHT22;2522;50.972;11.046;2022-09-03T05:48:06;13.60;99.90
5007;DHT22;2522;50.972;11.046;2022-09-03T05:50:34;13.70;99.90
5007;DHT22;2522;50.972;11.046;2022-09-03T05:53:01;13.70;99.90
5007;DHT22;2522;50.972;11.046;2022-09-03T05:55:28;13.80;99.90
5007;DHT22;2522;50.972;11.046;2022-09-03T05:57:54;13.90;99.90
5007;DHT22;2522;50.972;11.046;2022-09-03T06:00:21;13.90;99.90
5007;DHT22;2522;50.972;11.046;2022-09-03T06:02:49;14.00;99.90
5007;DHT22;2522;50.972;11.046;2022-09-03T06:05:15;14.10;99.90
5007;DHT22;2522;50.972;11.046;2022-09-03T06:07:44;14.20;99.90
5007;DHT22;2522;50.972;11.046;2022-09-03T06:10:13;14.30;99.90
5007;DHT22;2522;50.972;11.046;2022-09-03T06:12:40;14.40;99.90
5007;DHT22;2522;50.972;11.046;2022-09-03T06:15:09;14.50;99.90
5007;DHT22;2522;50.972;11.046;2022-09-03T06:17:36;14.60;99.90
5007;DHT22;2522;50.972;11.046;2022-09-03T06:20:03;14.70;99.90
5007;DHT22;2522;50.972;11.046;2022-09-03T06:22:29;14.70;99.90
5007;DHT22;2522;50.972;11.046;2022-09-03T06:24:57;14.80;99.90
5007;DHT22;2522;50.972;11.046;2022-09-03T06:27:24;14.90;99.90
5007;DHT22;2522;50.972;11.046;2022-09-03T06:29:51;15.00;99.90
5007;DHT22;2522;50.972;11.046;2022-09-03T06:32:17;15.10;99.90
5007;DHT22;2522;50.972;11.046;2022-09-03T06:34:44;15.20;99.90
5007;DHT22;2522;50.972;11.046;2022-09-03T06:37:11;15.30;99.90
5007;DHT22;2522;50.972;11.046;2022-09-03T06:39:37;15.40;99.90
5007;DHT22;2522;50.972;11.046;2022-09-03T06:42:06;15.50;99.90
5007;DHT22;2522;50.972;11.046;2022-09-03T06:44:34;15.60;99.90
5007;DHT22;2522;50.972;11.046;2022-09-03T06:47:00;15.70;99.90
5007;DHT22;2522;50.972;11.046;2022-09-03T06:49:27;15.80;99.90
5007;DHT22;2522;50.972;11.046;2022-09-03T06:51:56;15.80;99.90
5007;DHT22;2522;50.972;11.046;2022-09-03T06:54:22;15.80;99.90
5007;DHT22;2522;50.972;11.046;2022-09-03T06:56:49;15.80;99.90
5007;DHT22;2522;50.972;11.046;2022-09-03T06:59:17;15.80;99.90
5007;DHT22;2522;50.972;11.046;2022-09-03T07:01:44;15.90;99.90
5007;DHT22;2522;50.972;11.046;2022-09-03T07:04:11;15.90;99.90
5007;DHT22;2522;50.972;11.046;2022-09-03T07:06:38;16.00;99.90
5007;DHT22;2522;50.972;11.046;2022-09-03T07:09:06;16.10;99.90
5007;DHT22;2522;50.972;11.046;2022-09-03T07:11:33;16.30;99.90
5007;DHT22;2522;50.972;11.046;2022-09-03T07:14:00;16.40;99.90
5007;DHT22;2522;50.972;11.046;2022-09-03T07:16:31;16.50;99.90
5007;DHT22;2522;50.972;11.046;2022-09-03T07:18:57;16.60;99.90
5007;DHT22;2522;50.972;11.046;2022-09-03T07:21:26;16.80;99.90
5007;DHT22;2522;50.972;11.046;2022-09-03T07:23:53;17.00;99.90
5007;DHT22;2522;50.972;11.046;2022-09-03T07:26:20;17.00;99.90
5007;DHT22;2522;50.972;11.046;2022-09-03T07:28:47;17.10;99.90
5007;DHT22;2522;50.972;11.046;2022-09-03T07:31:15;17.10;99.90
5007;DHT22;2522;50.972;11.046;2022-09-03T07:33:45;17.10;99.90
5007;DHT22;2522;50.972;11.046;2022-09-03T07:36:13;17.20;99.90
5007;DHT22;2522;50.972;11.046;2022-09-03T07:38:40;17.20;99.90
5007;DHT22;2522;50.972;11.046;2022-09-03T07:41:09;17.40;99.80
5007;DHT22;2522;50.972;11.046;2022-09-03T07:43:36;17.60;99.30
5007;DHT22;2522;50.972;11.046;2022-09-03T07:46:08;17.80;98.30
5007;DHT22;2522;50.972;11.046;2022-09-03T07:48:37;18.00;97.90
5007;DHT22;2522;50.972;11.046;2022-09-03T07:51:05;18.10;97.50
5007;DHT22;2522;50.972;11.046;2022-09-03T07:53:32;18.20;97.00
5007;DHT22;2522;50.972;11.046;2022-09-03T07:56:03;18.30;96.80
5007;DHT22;2522;50.972;11.046;2022-09-03T07:58:32;18.40;96.60
5007;DHT22;2522;50.972;11.046;2022-09-03T08:01:02;18.60;96.50
5007;DHT22;2522;50.972;11.046;2022-09-03T08:03:29;18.70;96.70
5007;DHT22;2522;50.972;11.046;2022-09-03T08:05:59;18.80;96.40
5007;DHT22;2522;50.972;11.046;2022-09-03T08:08:27;19.00;96.20
5007;DHT22;2522;50.972;11.046;2022-09-03T08:10:53;19.10;96.10
5007;DHT22;2522;50.972;11.046;2022-09-03T08:13:22;19.30;95.70
5007;DHT22;2522;50.972;11.046;2022-09-03T08:15:52;19.50;95.20
5007;DHT22;2522;50.972;11.046;2022-09-03T08:18:19;19.60;95.00
5007;DHT22;2522;50.972;11.046;2022-09-03T08:20:47;19.70;94.30
5007;DHT22;2522;50.972;11.046;2022-09-03T08:23:14;19.70;93.70
5007;DHT22;2522;50.972;11.046;2022-09-03T08:25:42;19.90;93.50
5007;DHT22;2522;50.972;11.046;2022-09-03T08:28:08;20.00;93.40
5007;DHT22;2522;50.972;11.046;2022-09-03T08:30:35;20.20;93.10
5007;DHT22;2522;50.972;11.046;2022-09-03T08:33:02;20.20;92.40
5007;DHT22;2522;50.972;11.046;2022-09-03T08:35:29;20.30;92.20
5007;DHT22;2522;50.972;11.046;2022-09-03T08:37:58;20.40;91.30
5007;DHT22;2522;50.972;11.046;2022-09-03T08:40:29;20.40;91.60
5007;DHT22;2522;50.972;11.046;2022-09-03T08:43:02;20.50;90.90
5007;DHT22;2522;50.972;11.046;2022-09-03T08:45:34;20.50;90.80
5007;DHT22;2522;50.972;11.046;2022-09-03T08:48:03;20.60;90.50
5007;DHT22;2522;50.972;11.046;2022-09-03T08:50:31;20.70;90.40
5007;DHT22;2522;50.972;11.046;2022-09-03T08:53:02;20.70;90.20
5007;DHT22;2522;50.972;11.046;2022-09-03T08:55:30;20.80;89.90
5007;DHT22;2522;50.972;11.046;2022-09-03T08:58:00;20.80;88.80
5007;DHT22;2522;50.972;11.046;2022-09-03T09:00:33;20.90;89.80
5007;DHT22;2522;50.972;11.046;2022-09-03T09:03:06;21.00;89.30
5007;DHT22;2522;50.972;11.046;2022-09-03T09:05:43;21.10;88.20
5007;DHT22;2522;50.972;11.046;2022-09-03T09:08:14;21.10;88.10
5007;DHT22;2522;50.972;11.046;2022-09-03T09:10:43;21.30;88.10
5007;DHT22;2522;50.972;11.046;2022-09-03T09:13:12;21.30;87.20
5007;DHT22;2522;50.972;11.046;2022-09-03T09:15:45;21.40;86.80
5007;DHT22;2522;50.972;11.046;2022-09-03T09:18:15;21.50;86.10
5007;DHT22;2522;50.972;11.046;2022-09-03T09:20:47;21.60;84.60
5007;DHT22;2522;50.972;11.046;2022-09-03T09:23:16;21.60;83.50
5007;DHT22;2522;50.972;11.046;2022-09-03T09:25:46;21.70;82.70
5007;DHT22;2522;50.972;11.046;2022-09-03T09:28:15;21.70;82.00
5007;DHT22;2522;50.972;11.046;2022-09-03T09:30:44;21.80;83.30
5007;DHT22;2522;50.972;11.046;2022-09-03T09:33:12;21.90;82.30
5007;DHT22;2522;50.972;11.046;2022-09-03T09:35:38;22.00;82.10
5007;DHT22;2522;50.972;11.046;2022-09-03T09:38:06;22.00;80.70
5007;DHT22;2522;50.972;11.046;2022-09-03T09:40:33;22.10;81.00
5007;DHT22;2522;50.972;11.046;2022-09-03T09:43:04;22.10;80.80
5007;DHT22;2522;50.972;11.046;2022-09-03T09:45:31;22.00;80.30
5007;DHT22;2522;50.972;11.046;2022-09-03T09:47:59;22.00;80.40
5007;DHT22;2522;50.972;11.046;2022-09-03T09:50:27;22.10;79.90
5007;DHT22;2522;50.972;11.046;2022-09-03T09:53:00;22.20;79.50
5007;DHT22;2522;50.972;11.046;2022-09-03T09:55:29;22.30;78.80
5007;DHT22;2522;50.972;11.046;2022-09-03T09:58:03;22.30;78.70
5007;DHT22;2522;50.972;11.046;2022-09-03T10:00:30;22.40;77.30
5007;DHT22;2522;50.972;11.046;2022-09-03T10:03:00;22.50;77.90
5007;DHT22;2522;50.972;11.046;2022-09-03T10:05:28;22.60;77.80
5007;DHT22;2522;50.972;11.046;2022-09-03T10:07:55;22.60;77.00
5007;DHT22;2522;50.972;11.046;2022-09-03T10:10:23;22.60;77.20
5007;DHT22;2522;50.972;11.046;2022-09-03T10:12:52;22.70;77.60
5007;DHT22;2522;50.972;11.046;2022-09-03T10:15:25;22.70;76.20
5007;DHT22;2522;50.972;11.046;2022-09-03T10:17:57;22.80;75.10
5007;DHT22;2522;50.972;11.046;2022-09-03T10:20:30;22.90;74.70
5007;DHT22;2522;50.972;11.046;2022-09-03T10:23:06;23.00;74.80
5007;DHT22;2522;50.972;11.046;2022-09-03T10:25:35;23.00;75.40
5007;DHT22;2522;50.972;11.046;2022-09-03T10:28:04;23.10;74.00
5007;DHT22;2522;50.972;11.046;2022-09-03T10:30:33;23.20;73.60
5007;DHT22;2522;50.972;11.046;2022-09-03T10:33:14;23.20;73.70
5007;DHT22;2522;50.972;11.046;2022-09-03T10:35:44;23.30;74.30
5007;DHT22;2522;50.972;11.046;2022-09-03T10:38:14;23.40;74.80
5007;DHT22;2522;50.972;11.046;2022-09-03T10:40:43;23.40;75.00
5007;DHT22;2522;50.972;11.046;2022-09-03T10:43:19;23.40;75.10
5007;DHT22;2522;50.972;11.046;2022-09-03T10:45:55;23.50;73.90
5007;DHT22;2522;50.972;11.046;2022-09-03T10:48:34;23.50;73.80
5007;DHT22;2522;50.972;11.046;2022-09-03T10:51:05;23.50;73.80
5007;DHT22;2522;50.972;11.046;2022-09-03T10:53:40;23.60;73.90
5007;DHT22;2522;50.972;11.046;2022-09-03T10:56:10;23.70;74.10
5007;DHT22;2522;50.972;11.046;2022-09-03T10:58:45;23.80;73.40
5007;DHT22;2522;50.972;11.046;2022-09-03T11:01:17;23.80;72.80
5007;DHT22;2522;50.972;11.046;2022-09-03T11:03:47;23.80;71.70
5007;DHT22;2522;50.972;11.046;2022-09-03T11:06:16;23.60;71.70
5007;DHT22;2522;50.972;11.046;2022-09-03T11:08:45;23.60;72.10
5007;DHT22;2522;50.972;11.046;2022-09-03T11:11:14;23.50;72.60
5007;DHT22;2522;50.972;11.046;2022-09-03T11:13:45;23.40;72.80
5007;DHT22;2522;50.972;11.046;2022-09-03T11:16:14;23.20;72.90
5007;DHT22;2522;50.972;11.046;2022-09-03T11:18:43;23.10;73.00
5007;DHT22;2522;50.972;11.046;2022-09-03T11:21:12;23.10;73.30
5007;DHT22;2522;50.972;11.046;2022-09-03T11:23:41;23.10;73.10
5007;DHT22;2522;50.972;11.046;2022-09-03T11:26:10;23.00;72.80
5007;DHT22;2522;50.972;11.046;2022-09-03T11:28:39;23.00;73.50
5007;DHT22;2522;50.972;11.046;2022-09-03T11:31:13;23.00;73.70
5007;DHT22;2522;50.972;11.046;2022-09-03T11:33:44;23.00;73.80
5007;DHT22;2522;50.972;11.046;2022-09-03T11:36:13;23.00;73.50
5007;DHT22;2522;50.972;11.046;2022-09-03T11:38:47;23.00;73.40
5007;DHT22;2522;50.972;11.046;2022-09-03T11:41:21;23.10;73.30
5007;DHT22;2522;50.972;11.046;2022-09-03T11:43:50;23.30;73.00
5007;DHT22;2522;50.972;11.046;2022-09-03T11:46:26;23.40;72.20
5007;DHT22;2522;50.972;11.046;2022-09-03T11:48:53;23.40;71.30
5007;DHT22;2522;50.972;11.046;2022-09-03T11:51:28;23.30;70.50
5007;DHT22;2522;50.972;11.046;2022-09-03T11:53:58;23.20;70.70
5007;DHT22;2522;50.972;11.046;2022-09-03T11:56:26;23.10;70.20
5007;DHT22;2522;50.972;11.046;2022-09-03T11:59:04;23.00;70.30
5007;DHT22;2522;50.972;11.046;2022-09-03T12:01:31;22.90;70.80
5007;DHT22;2522;50.972;11.046;2022-09-03T12:03:59;23.00;70.80
5007;DHT22;2522;50.972;11.046;2022-09-03T12:12:03;23.30;69.80
5007;DHT22;2522;50.972;11.046;2022-09-03T12:14:35;23.50;69.30
5007;DHT22;2522;50.972;11.046;2022-09-03T12:17:07;23.70;69.10
5007;DHT22;2522;50.972;11.046;2022-09-03T12:19:38;23.80;69.40
5007;DHT22;2522;50.972;11.046;2022-09-03T12:22:06;23.90;69.30
5007;DHT22;2522;50.972;11.046;2022-09-03T12:24:32;24.10;68.80
5007;DHT22;2522;50.972;11.046;2022-09-03T12:27:03;24.20;68.30
5007;DHT22;2522;50.972;11.046;2022-09-03T12:29:30;24.20;67.70
5007;DHT22;2522;50.972;11.046;2022-09-03T12:32:04;24.10;67.40
5007;DHT22;2522;50.972;11.046;2022-09-03T12:34:31;24.10;67.80
5007;DHT22;2522;50.972;11.046;2022-09-03T12:36:58;24.10;67.40
5007;DHT22;2522;50.972;11.046;2022-09-03T12:39:25;24.10;67.20
5007;DHT22;2522;50.972;11.046;2022-09-03T12:41:53;24.10;67.30
5007;DHT22;2522;50.972;11.046;2022-09-03T12:44:25;24.20;67.60
5007;DHT22;2522;50.972;11.046;2022-09-03T12:47:00;24.30;67.40
5007;DHT22;2522;50.972;11.046;2022-09-03T12:49:32;24.40;67.40
5007;DHT22;2522;50.972;11.046;2022-09-03T12:51:59;24.60;67.30
5007;DHT22;2522;50.972;11.046;2022-09-03T12:54:27;24.70;66.80
5007;DHT22;2522;50.972;11.046;2022-09-03T12:56:55;24.80;66.80
5007;DHT22;2522;50.972;11.046;2022-09-03T12:59:23;24.80;66.30
5007;DHT22;2522;50.972;11.046;2022-09-03T13:01:53;24.70;65.80
5007;DHT22;2522;50.972;11.046;2022-09-03T13:04:22;24.70;66.30
5007;DHT22;2522;50.972;11.046;2022-09-03T13:06:52;24.70;66.30
5007;DHT22;2522;50.972;11.046;2022-09-03T13:09:21;24.70;66.50
5007;DHT22;2522;50.972;11.046;2022-09-03T13:11:49;24.70;66.30
5007;DHT22;2522;50.972;11.046;2022-09-03T13:14:16;24.60;65.50
5007;DHT22;2522;50.972;11.046;2022-09-03T13:16:47;24.40;65.50
5007;DHT22;2522;50.972;11.046;2022-09-03T13:19:19;24.20;65.90
5007;DHT22;2522;50.972;11.046;2022-09-03T13:21:47;24.10;66.10
5007;DHT22;2522;50.972;11.046;2022-09-03T13:24:19;24.20;66.10
5007;DHT22;2522;50.972;11.046;2022-09-03T13:26:49;24.30;66.40
5007;DHT22;2522;50.972;11.046;2022-09-03T13:29:25;24.40;66.10
5007;DHT22;2522;50.972;11.046;2022-09-03T13:31:54;24.50;66.40
5007;DHT22;2522;50.972;11.046;2022-09-03T13:34:24;24.50;65.90
5007;DHT22;2522;50.972;11.046;2022-09-03T13:36:53;24.40;65.60
5007;DHT22;2522;50.972;11.046;2022-09-03T13:39:23;24.30;66.10
5007;DHT22;2522;50.972;11.046;2022-09-03T13:41:53;24.30;66.30
5007;DHT22;2522;50.972;11.046;2022-09-03T13:44:23;24.20;66.40
5007;DHT22;2522;50.972;11.046;2022-09-03T13:46:58;24.10;66.40
5007;DHT22;2522;50.972;11.046;2022-09-03T13:49:29;24.10;66.40
5007;DHT22;2522;50.972;11.046;2022-09-03T13:52:23;24.00;66.10
5007;DHT22;2522;50.972;11.046;2022-09-03T13:54:53;23.90;66.30
5007;DHT22;2522;50.972;11.046;2022-09-03T13:57:29;23.80;66.20
5007;DHT22;2522;50.972;11.046;2022-09-03T13:59:59;23.80;66.60
5007;DHT22;2522;50.972;11.046;2022-09-03T14:02:27;23.80;66.70
5007;DHT22;2522;50.972;11.046;2022-09-03T14:05:02;23.90;66.60
5007;DHT22;2522;50.972;11.046;2022-09-03T14:07:34;23.90;66.70
5007;DHT22;2522;50.972;11.046;2022-09-03T14:10:10;23.90;66.60
5007;DHT22;2522;50.972;11.046;2022-09-03T14:12:42;23.90;66.90
5007;DHT22;2522;50.972;11.046;2022-09-03T14:15:15;23.90;66.70
5007;DHT22;2522;50.972;11.046;2022-09-03T14:17:43;23.90;66.70
5007;DHT22;2522;50.972;11.046;2022-09-03T14:20:16;23.90;66.90
5007;DHT22;2522;50.972;11.046;2022-09-03T14:22:46;23.90;67.00
5007;DHT22;2522;50.972;11.046;2022-09-03T14:25:14;23.90;66.90
5007;DHT22;2522;50.972;11.046;2022-09-03T14:27:42;23.90;66.80
5007;DHT22;2522;50.972;11.046;2022-09-03T14:30:16;23.90;66.60
5007;DHT22;2522;50.972;11.046;2022-09-03T14:32:44;23.90;66.50
5007;DHT22;2522;50.972;11.046;2022-09-03T14:35:26;23.80;66.40
5007;DHT22;2522;50.972;11.046;2022-09-03T14:38:01;23.80;66.90
5007;DHT22;2522;50.972;11.046;2022-09-03T14:40:34;23.80;67.10
5007;DHT22;2522;50.972;11.046;2022-09-03T14:43:17;23.80;67.10
5007;DHT22;2522;50.972;11.046;2022-09-03T14:46:05;23.80;67.10
5007;DHT22;2522;50.972;11.046;2022-09-03T14:51:25;23.70;67.00
5007;DHT22;2522;50.972;11.046;2022-09-03T14:54:14;23.60;67.10
5007;DHT22;2522;50.972;11.046;2022-09-03T14:56:48;23.60;67.30
5007;DHT22;2522;50.972;11.046;2022-09-03T14:59:22;23.60;67.70
5007;DHT22;2522;50.972;11.046;2022-09-03T15:01:54;23.60;68.00
5007;DHT22;2522;50.972;11.046;2022-09-03T15:04:49;23.60;68.10
5007;DHT22;2522;50.972;11.046;2022-09-03T15:07:27;23.50;68.00
5007;DHT22;2522;50.972;11.046;2022-09-03T15:09:58;23.50;68.20
5007;DHT22;2522;50.972;11.046;2022-09-03T15:12:29;23.40;67.90
5007;DHT22;2522;50.972;11.046;2022-09-03T15:14:59;23.40;68.20
5007;DHT22;2522;50.972;11.046;2022-09-03T15:17:34;23.40;68.60
5007;DHT22;2522;50.972;11.046;2022-09-03T15:20:05;23.30;68.90
5007;DHT22;2522;50.972;11.046;2022-09-03T15:22:44;23.30;69.30
5007;DHT22;2522;50.972;11.046;2022-09-03T15:25:15;23.20;69.40
5007;DHT22;2522;50.972;11.046;2022-09-03T15:27:49;23.10;70.70
5007;DHT22;2522;50.972;11.046;2022-09-03T15:30:20;23.00;72.40
5007;DHT22;2522;50.972;11.046;2022-09-03T15:32:48;22.90;73.80
5007;DHT22;2522;50.972;11.046;2022-09-03T15:35:25;22.70;75.70
5007;DHT22;2522;50.972;11.046;2022-09-03T15:38:00;22.60;79.20
5007;DHT22;2522;50.972;11.046;2022-09-03T15:40:27;22.40;78.90
5007;DHT22;2522;50.972;11.046;2022-09-03T15:42:57;22.20;79.50
5007;DHT22;2522;50.972;11.046;2022-09-03T15:45:30;22.10;79.10
5007;DHT22;2522;50.972;11.046;2022-09-03T15:48:00;22.10;80.00
5007;DHT22;2522;50.972;11.046;2022-09-03T15:50:32;22.00;80.70
5007;DHT22;2522;50.972;11.046;2022-09-03T15:53:03;21.90;81.70
5007;DHT22;2522;50.972;11.046;2022-09-03T15:55:33;21.80;82.50
5007;DHT22;2522;50.972;11.046;2022-09-03T15:58:03;21.70;83.30
5007;DHT22;2522;50.972;11.046;2022-09-03T16:00:38;21.70;83.70
5007;DHT22;2522;50.972;11.046;2022-09-03T16:03:08;21.60;84.50
5007;DHT22;2522;50.972;11.046;2022-09-03T16:05:36;21.60;86.60
5007;DHT22;2522;50.972;11.046;2022-09-03T16:08:09;21.50;86.00
5007;DHT22;2522;50.972;11.046;2022-09-03T16:10:41;21.40;85.30
5007;DHT22;2522;50.972;11.046;2022-09-03T16:13:12;21.40;85.10
5007;DHT22;2522;50.972;11.046;2022-09-03T16:15:48;21.40;84.80
5007;DHT22;2522;50.972;11.046;2022-09-03T16:18:21;21.40;84.90
5007;DHT22;2522;50.972;11.046;2022-09-03T16:20:52;21.40;84.90
5007;DHT22;2522;50.972;11.046;2022-09-03T16:23:25;21.40;85.10
5007;DHT22;2522;50.972;11.046;2022-09-03T16:25:54;21.30;85.60
5007;DHT22;2522;50.972;11.046;2022-09-03T16:28:24;21.30;86.00
5007;DHT22;2522;50.972;11.046;2022-09-03T16:30:56;21.30;86.40
5007;DHT22;2522;50.972;11.046;2022-09-03T16:33:27;21.30;86.50
5007;DHT22;2522;50.972;11.046;2022-09-03T16:35:59;21.30;86.80
5007;DHT22;2522;50.972;11.046;2022-09-03T16:38:36;21.20;87.70
5007;DHT22;2522;50.972;11.046;2022-09-03T16:41:11;21.20;87.80
5007;DHT22;2522;50.972;11.046;2022-09-03T16:43:41;21.20;87.90
5007;DHT22;2522;50.972;11.046;2022-09-03T16:46:21;21.20;87.80
5007;DHT22;2522;50.972;11.046;2022-09-03T16:48:53;21.20;87.90
5007;DHT22;2522;50.972;11.046;2022-09-03T16:51:24;21.20;87.90
5007;DHT22;2522;50.972;11.046;2022-09-03T16:54:06;21.20;88.20
5007;DHT22;2522;50.972;11.046;2022-09-03T16:56:40;21.10;88.20
5007;DHT22;2522;50.972;11.046;2022-09-03T16:59:12;21.10;86.40
5007;DHT22;2522;50.972;11.046;2022-09-03T17:01:47;21.10;85.90
5007;DHT22;2522;50.972;11.046;2022-09-03T17:07:03;21.00;85.90
5007;DHT22;2522;50.972;11.046;2022-09-03T17:09:40;20.90;86.40
5007;DHT22;2522;50.972;11.046;2022-09-03T17:12:13;20.90;85.80
5007;DHT22;2522;50.972;11.046;2022-09-03T17:14:46;20.80;85.50
5007;DHT22;2522;50.972;11.046;2022-09-03T17:17:16;20.80;85.40
5007;DHT22;2522;50.972;11.046;2022-09-03T17:19:47;20.80;85.60
5007;DHT22;2522;50.972;11.046;2022-09-03T17:22:20;20.80;85.70
5007;DHT22;2522;50.972;11.046;2022-09-03T17:24:50;20.70;85.80
5007;DHT22;2522;50.972;11.046;2022-09-03T17:27:38;20.70;85.90
5007;DHT22;2522;50.972;11.046;2022-09-03T17:30:14;20.60;85.70
5007;DHT22;2522;50.972;11.046;2022-09-03T17:32:46;20.60;85.70
5007;DHT22;2522;50.972;11.046;2022-09-03T17:35:25;20.60;85.80
5007;DHT22;2522;50.972;11.046;2022-09-03T17:37:58;20.60;85.90
5007;DHT22;2522;50.972;11.046;2022-09-03T17:40:34;20.50;86.10
5007;DHT22;2522;50.972;11.046;2022-09-03T17:43:06;20.50;86.50
5007;DHT22;2522;50.972;11.046;2022-09-03T17:45:40;20.50;87.10
5007;DHT22;2522;50.972;11.046;2022-09-03T17:48:14;20.50;87.20
5007;DHT22;2522;50.972;11.046;2022-09-03T17:50:46;20.50;87.80
5007;DHT22;2522;50.972;11.046;2022-09-03T17:53:16;20.40;88.00
5007;DHT22;2522;50.972;11.046;2022-09-03T17:55:49;20.40;89.20
5007;DHT22;2522;50.972;11.046;2022-09-03T17:58:18;20.40;89.40
5007;DHT22;2522;50.972;11.046;2022-09-03T18:00:50;20.30;90.00
5007;DHT22;2522;50.972;11.046;2022-09-03T18:03:20;20.20;89.90
5007;DHT22;2522;50.972;11.046;2022-09-03T18:05:48;20.20;90.10
5007;DHT22;2522;50.972;11.046;2022-09-03T18:08:21;20.20;90.40
5007;DHT22;2522;50.972;11.046;2022-09-03T18:10:53;20.10;90.80
5007;DHT22;2522;50.972;11.046;2022-09-03T18:13:28;20.00;91.00
5007;DHT22;2522;50.972;11.046;2022-09-03T18:15:58;20.00;91.20
5007;DHT22;2522;50.972;11.046;2022-09-03T18:18:27;19.90;91.30
5007;DHT22;2522;50.972;11.046;2022-09-03T18:20:54;19.90;91.40
5007;DHT22;2522;50.972;11.046;2022-09-03T18:23:43;19.80;91.40
5007;DHT22;2522;50.972;11.046;2022-09-03T18:26:30;19.80;91.50
5007;DHT22;2522;50.972;11.046;2022-09-03T18:29:28;19.80;91.60
5007;DHT22;2522;50.972;11.046;2022-09-03T18:32:14;19.80;91.80
5007;DHT22;2522;50.972;11.046;2022-09-03T18:34:58;19.80;91.90
5007;DHT22;2522;50.972;11.046;2022-09-03T18:37:42;19.70;91.90
5007;DHT22;2522;50.972;11.046;2022-09-03T18:40:28;19.70;92.10
5007;DHT22;2522;50.972;11.046;2022-09-03T18:43:17;19.80;92.20
5007;DHT22;2522;50.972;11.046;2022-09-03T18:46:05;19.70;92.20
5007;DHT22;2522;50.972;11.046;2022-09-03T18:48:54;19.60;92.60
5007;DHT22;2522;50.972;11.046;2022-09-03T18:51:42;19.60;92.50
5007;DHT22;2522;50.972;11.046;2022-09-03T18:54:30;19.60;92.50
5007;DHT22;2522;50.972;11.046;2022-09-03T18:57:17;19.60;92.70
5007;DHT22;2522;50.972;11.046;2022-09-03T19:00:05;19.50;92.80
5007;DHT22;2522;50.972;11.046;2022-09-03T19:05:59;19.50;93.30
5007;DHT22;2522;50.972;11.046;2022-09-03T19:08:49;19.40;93.30
5007;DHT22;2522;50.972;11.046;2022-09-03T19:11:34;19.40;93.50
5007;DHT22;2522;50.972;11.046;2022-09-03T19:14:23;19.30;93.50
5007;DHT22;2522;50.972;11.046;2022-09-03T19:17:11;19.30;93.70
5007;DHT22;2522;50.972;11.046;2022-09-03T19:20:00;19.30;94.00
5007;DHT22;2522;50.972;11.046;2022-09-03T19:22:45;19.20;94.00
5007;DHT22;2522;50.972;11.046;2022-09-03T19:25:30;19.20;94.00
5007;DHT22;2522;50.972;11.046;2022-09-03T19:28:15;19.20;94.20
5007;DHT22;2522;50.972;11.046;2022-09-03T19:31:04;19.20;94.30
5007;DHT22;2522;50.972;11.046;2022-09-03T19:33:54;19.10;94.30
5007;DHT22;2522;50.972;11.046;2022-09-03T19:36:41;19.10;94.40
5007;DHT22;2522;50.972;11.046;2022-09-03T19:39:31;19.10;94.50
5007;DHT22;2522;50.972;11.046;2022-09-03T19:42:17;19.00;94.40
5007;DHT22;2522;50.972;11.046;2022-09-03T19:45:07;19.00;94.40
5007;DHT22;2522;50.972;11.046;2022-09-03T19:47:59;19.00;94.40
5007;DHT22;2522;50.972;11.046;2022-09-03T19:50:49;18.90;94.60
5007;DHT22;2522;50.972;11.046;2022-09-03T19:53:36;18.90;94.60
5007;DHT22;2522;50.972;11.046;2022-09-03T19:56:22;18.90;94.60
5007;DHT22;2522;50.972;11.046;2022-09-03T19:59:09;18.90;94.60
5007;DHT22;2522;50.972;11.046;2022-09-03T20:01:54;18.90;94.70
5007;DHT22;2522;50.972;11.046;2022-09-03T20:04:40;19.00;94.60
5007;DHT22;2522;50.972;11.046;2022-09-03T20:07:27;19.00;94.60
5007;DHT22;2522;50.972;11.046;2022-09-03T20:10:11;19.00;94.60
5007;DHT22;2522;50.972;11.046;2022-09-03T20:13:00;19.00;94.60
5007;DHT22;2522;50.972;11.046;2022-09-03T20:15:31;19.00;94.60
5007;DHT22;2522;50.972;11.046;2022-09-03T20:18:04;18.90;94.50
5007;DHT22;2522;50.972;11.046;2022-09-03T20:20:35;19.00;94.60
5007;DHT22;2522;50.972;11.046;2022-09-03T20:23:09;18.90;94.70
5007;DHT22;2522;50.972;11.046;2022-09-03T20:25:40;18.90;94.80
5007;DHT22;2522;50.972;11.046;2022-09-03T20:28:12;19.00;95.00
5007;DHT22;2522;50.972;11.046;2022-09-03T20:30:42;18.90;95.00
5007;DHT22;2522;50.972;11.046;2022-09-03T20:33:21;18.90;95.00
5007;DHT22;2522;50.972;11.046;2022-09-03T20:35:55;18.90;95.20
5007;DHT22;2522;50.972;11.046;2022-09-03T20:38:33;18.90;95.40
5007;DHT22;2522;50.972;11.046;2022-09-03T20:41:06;18.90;95.60
5007;DHT22;2522;50.972;11.046;2022-09-03T20:43:42;18.80;95.80
5007;DHT22;2522;50.972;11.046;2022-09-03T20:46:21;18.80;95.90
5007;DHT22;2522;50.972;11.046;2022-09-03T20:48:52;18.80;96.20
5007;DHT22;2522;50.972;11.046;2022-09-03T20:51:24;18.90;96.20
5007;DHT22;2522;50.972;11.046;2022-09-03T20:54:02;18.80;96.20
5007;DHT22;2522;50.972;11.046;2022-09-03T20:56:37;18.80;96.20
5007;DHT22;2522;50.972;11.046;2022-09-03T20:59:07;18.80;96.40
